createdAt,value
2023-01-17T00:00:46.385Z,69.05
2023-01-17T00:06:07.036Z,69.11
2023-01-17T00:11:10.574Z,69.97
2023-01-17T00:16:15.436Z,69.12
2023-01-17T00:21:38.364Z,69.17
2023-01-17T00:26:55.627Z,69.82
2023-01-17T00:31:59.190Z,69.87
2023-01-17T00:37:01.402Z,70.13
2023-01-17T00:42:03.720Z,70.26
2023-01-17T00:47:25.897Z,70.48
2023-01-17T00:52:46.464Z,69.84
2023-01-17T00:58:07.176Z,70.40
2023-01-17T01:03:30.629Z,70.46
2023-01-17T01:08:51.235Z,70.35
2023-01-17T01:14:13.604Z,70.57
2023-01-17T01:19:36.081Z,70.65
2023-01-17T01:24:56.795Z,70.09
2023-01-17T01:30:17.353Z,70.41
2023-01-17T01:35:22.534Z,70.66
2023-01-17T01:40:25.862Z,71.71
2023-01-17T01:45:31.609Z,72.04
2023-01-17T01:50:38.224Z,71.36
2023-01-17T01:55:45.478Z,71.95
2023-01-17T02:00:49.089Z,71.93
2023-01-17T02:05:54.083Z,71.78
2023-01-17T02:10:57.920Z,71.97
2023-01-17T02:16:06.990Z,71.22
2023-01-17T02:21:25.379Z,70.92
2023-01-17T02:26:57.008Z,71.89
2023-01-17T02:32:07.268Z,71.38
2023-01-17T02:37:16.085Z,71.15
2023-01-17T02:42:26.568Z,70.94
2023-01-17T02:47:33.248Z,70.27
2023-01-17T02:52:51.066Z,71.24
2023-01-17T02:58:07.145Z,70.84
2023-01-17T03:03:20.542Z,70.41
2023-01-17T03:08:24.998Z,70.18
2023-01-17T03:13:28.600Z,70.32
2023-01-17T03:18:33.496Z,71.24
2023-01-17T03:23:36.871Z,70.68
2023-01-17T03:28:40.290Z,70.65
2023-01-17T03:33:45.200Z,70.62
2023-01-17T03:38:48.694Z,70.42
2023-01-17T03:43:52.160Z,70.57
2023-01-17T03:48:56.959Z,70.22
2023-01-17T03:54:00.132Z,70.85
2023-01-17T03:59:04.115Z,70.80
2023-01-17T04:04:09.143Z,70.11
2023-01-17T04:09:12.582Z,69.78
2023-01-17T04:14:16.057Z,70.49
2023-01-17T04:19:20.969Z,69.96
2023-01-17T04:24:24.532Z,70.12
2023-01-17T04:29:27.843Z,69.84
2023-01-17T04:34:32.617Z,70.70
2023-01-17T04:39:36.118Z,70.43
2023-01-17T04:44:39.432Z,70.52
2023-01-17T04:49:44.414Z,71.06
2023-01-17T04:54:49.556Z,71.18
2023-01-17T04:59:53.780Z,70.74
2023-01-17T05:04:58.819Z,71.15
2023-01-17T05:10:02.121Z,71.08
2023-01-17T05:15:07.184Z,71.02
2023-01-17T05:20:13.578Z,70.33
2023-01-17T05:25:16.956Z,71.08
2023-01-17T05:30:21.153Z,70.36
2023-01-17T05:35:29.779Z,70.56
2023-01-17T05:40:34.641Z,70.24
2023-01-17T05:45:38.140Z,70.85
2023-01-17T05:50:42.959Z,70.42
2023-01-17T05:55:46.242Z,70.37
2023-01-17T06:00:50.269Z,70.15
2023-01-17T06:05:55.224Z,69.86
2023-01-17T06:10:59.846Z,69.87
2023-01-17T06:16:04.395Z,70.46
2023-01-17T06:21:09.334Z,70.46
2023-01-17T06:26:12.500Z,70.16
2023-01-17T06:31:15.900Z,69.90
2023-01-17T06:36:20.626Z,69.74
2023-01-17T06:41:25.989Z,70.01
2023-01-17T06:46:29.404Z,70.16
2023-01-17T06:51:34.307Z,69.46
2023-01-17T06:56:37.709Z,68.73
2023-01-17T07:01:41.690Z,69.27
2023-01-17T07:06:46.512Z,69.70
2023-01-17T07:11:51.936Z,69.43
2023-01-17T07:16:55.719Z,68.90
2023-01-17T07:22:00.573Z,69.33
2023-01-17T07:27:03.744Z,69.33
2023-01-17T07:32:09.068Z,68.65
2023-01-17T07:37:15.324Z,69.00
2023-01-17T07:42:18.841Z,69.15
2023-01-17T07:47:22.435Z,68.59
2023-01-17T07:52:27.353Z,68.85
2023-01-17T07:57:30.550Z,69.09
2023-01-17T08:02:34.028Z,68.41
2023-01-17T08:07:38.922Z,68.05
2023-01-17T08:12:42.132Z,68.83
2023-01-17T08:17:48.795Z,68.99
2023-01-17T08:22:56.836Z,69.04
2023-01-17T08:28:00.573Z,71.96
2023-01-17T08:33:04.147Z,68.47
2023-01-17T08:38:10.151Z,69.35
2023-01-17T08:43:13.604Z,69.32
2023-01-17T08:48:17.277Z,69.32
2023-01-17T08:53:23.511Z,69.10
2023-01-17T08:58:30.465Z,69.33
2023-01-17T09:03:35.291Z,69.03
2023-01-17T09:08:40.823Z,69.25
2023-01-17T09:13:44.728Z,69.32
2023-01-17T09:18:48.203Z,69.51
2023-01-17T09:23:53.212Z,69.34
2023-01-17T09:28:57.171Z,69.02
2023-01-17T09:34:01.101Z,69.15
2023-01-17T09:39:06.277Z,73.83
2023-01-17T09:44:24.847Z,75.32
2023-01-17T09:49:36.747Z,69.93
2023-01-17T09:54:43.995Z,70.43
2023-01-17T10:00:03.237Z,70.05
2023-01-17T10:05:30.019Z,70.53
2023-01-17T10:10:42.514Z,70.34
2023-01-17T10:16:00.899Z,69.88
2023-01-17T10:21:11.128Z,70.16
2023-01-17T10:26:19.964Z,70.15
2023-01-17T10:31:25.894Z,69.95
2023-01-17T10:36:34.732Z,69.56
2023-01-17T10:41:43.769Z,69.87
2023-01-17T10:46:54.281Z,69.23
2023-01-17T10:52:20.413Z,70.21
2023-01-17T10:57:28.392Z,69.67
2023-01-17T11:02:35.609Z,69.45
2023-01-17T11:07:40.162Z,70.28
2023-01-17T11:12:48.355Z,69.71
2023-01-17T11:17:54.348Z,70.51
2023-01-17T11:23:14.119Z,69.81
2023-01-17T11:28:26.111Z,69.53
2023-01-17T11:33:45.346Z,69.75
2023-01-17T11:39:00.239Z,70.14
2023-01-17T11:44:25.044Z,69.76
2023-01-17T11:49:30.883Z,69.14
2023-01-17T11:54:39.814Z,70.14
2023-01-17T11:59:47.943Z,69.73
2023-01-17T12:05:04.136Z,69.76
2023-01-17T12:10:14.764Z,69.44
2023-01-17T12:15:35.345Z,69.30
2023-01-17T12:20:47.169Z,69.83
2023-01-17T12:26:04.532Z,69.80
2023-01-17T12:31:21.844Z,69.00
2023-01-17T12:36:40.268Z,69.46
2023-01-17T12:41:57.570Z,69.39
2023-01-17T12:47:05.050Z,69.26
2023-01-17T12:52:15.172Z,69.03
2023-01-17T12:57:23.299Z,69.01
2023-01-17T13:02:36.564Z,69.42
2023-01-17T13:07:47.543Z,69.11
2023-01-17T13:12:52.201Z,68.08
2023-01-17T13:18:04.561Z,68.45
2023-01-17T13:23:14.008Z,68.56
2023-01-17T13:28:31.525Z,67.71
2023-01-17T13:33:56.627Z,67.90
2023-01-17T13:39:20.447Z,68.28
2023-01-17T13:44:30.161Z,67.95
2023-01-17T13:49:37.400Z,68.39
2023-01-17T13:54:49.185Z,68.22
2023-01-17T13:59:53.109Z,68.25
2023-01-17T14:05:15.335Z,68.21
2023-01-17T14:10:37.947Z,67.77
2023-01-17T14:15:51.011Z,67.24
2023-01-17T14:21:12.876Z,67.30
2023-01-17T14:26:42.679Z,67.24
2023-01-17T14:31:46.813Z,66.66
2023-01-17T14:36:51.581Z,67.11
2023-01-17T14:41:54.984Z,66.77
2023-01-17T14:46:58.365Z,66.97
2023-01-17T14:52:04.792Z,66.83
2023-01-17T14:57:27.016Z,66.62
2023-01-17T15:02:30.558Z,66.95
2023-01-17T15:07:38.197Z,66.23
2023-01-17T15:12:46.698Z,66.77
2023-01-17T15:17:53.811Z,67.09
2023-01-17T15:22:58.653Z,66.71
2023-01-17T15:28:04.741Z,66.65
2023-01-17T15:33:15.130Z,65.95
2023-01-17T15:38:19.963Z,65.94
2023-01-17T15:43:35.995Z,65.56
2023-01-17T15:48:43.526Z,65.85
2023-01-17T15:53:48.403Z,65.98
2023-01-17T15:58:51.577Z,65.08
2023-01-17T16:03:55.721Z,65.15
2023-01-17T16:09:00.616Z,64.97
2023-01-17T16:14:07.635Z,64.09
2023-01-17T16:19:11.331Z,64.23
2023-01-17T16:24:16.840Z,64.34
2023-01-17T16:29:20.148Z,64.54
2023-01-17T16:34:24.090Z,64.67
2023-01-17T16:39:29.551Z,64.65
2023-01-17T16:44:33.611Z,64.05
2023-01-17T16:49:37.118Z,63.98
2023-01-17T16:54:41.987Z,64.50
2023-01-17T16:59:50.867Z,63.58
2023-01-17T17:04:54.568Z,64.63
2023-01-17T17:10:02.576Z,64.46
2023-01-17T17:15:07.956Z,64.71
2023-01-17T17:20:13.772Z,63.97
2023-01-17T17:25:19.421Z,64.63
2023-01-17T17:30:22.790Z,64.55
2023-01-17T17:35:26.289Z,65.00
2023-01-17T17:40:31.137Z,63.86
2023-01-17T17:45:34.456Z,65.25
2023-01-17T17:50:40.287Z,64.62
2023-01-17T17:55:45.153Z,65.46
2023-01-17T18:00:48.378Z,65.50
2023-01-17T18:05:51.828Z,65.72
2023-01-17T18:11:03.585Z,66.04
2023-01-17T18:16:08.921Z,65.53
2023-01-17T18:21:14.271Z,66.46
2023-01-17T18:26:20.994Z,66.01
2023-01-17T18:31:27.700Z,65.88
2023-01-17T18:36:31.174Z,66.26
2023-01-17T18:41:36.130Z,66.42
2023-01-17T18:46:40.411Z,67.45
2023-01-17T18:51:46.794Z,66.85
2023-01-17T18:56:52.773Z,66.36
2023-01-17T19:01:59.048Z,65.90
2023-01-17T19:07:02.577Z,66.19
2023-01-17T19:12:07.747Z,67.46
2023-01-17T19:17:11.048Z,67.50
2023-01-17T19:22:14.600Z,66.91
2023-01-17T19:27:19.509Z,67.11
2023-01-17T19:32:22.679Z,67.27
2023-01-17T19:37:27.173Z,69.08
2023-01-17T19:42:32.025Z,69.92
2023-01-17T19:47:35.483Z,71.57
2023-01-17T19:52:42.413Z,71.58
2023-01-17T19:57:47.253Z,71.37
2023-01-17T20:02:50.293Z,71.62
2023-01-17T20:07:53.791Z,71.17
2023-01-17T20:13:00.401Z,69.90
2023-01-17T20:18:04.103Z,69.54
2023-01-17T20:23:10.530Z,69.48
2023-01-17T20:28:15.247Z,69.64
2023-01-17T20:33:20.730Z,68.77
2023-01-17T20:38:27.545Z,68.60
2023-01-17T20:43:32.385Z,68.52
2023-01-17T20:48:35.786Z,67.80
2023-01-17T20:53:43.598Z,68.57
2023-01-17T20:58:49.584Z,68.31
2023-01-17T21:03:54.900Z,67.54
2023-01-17T21:08:59.930Z,67.51
2023-01-17T21:14:05.844Z,67.93
2023-01-17T21:19:15.865Z,67.94
2023-01-17T21:24:20.371Z,67.58
2023-01-17T21:29:29.607Z,68.39
2023-01-17T21:34:34.812Z,67.26
2023-01-17T21:39:38.800Z,67.62
2023-01-17T21:44:45.479Z,67.43
2023-01-17T21:49:48.822Z,67.22
2023-01-17T21:55:09.606Z,66.92
2023-01-17T22:00:16.121Z,66.85
2023-01-17T22:05:19.757Z,67.50
2023-01-17T22:10:23.337Z,67.68
2023-01-17T22:15:28.088Z,66.81
2023-01-17T22:20:34.196Z,66.61
2023-01-17T22:25:38.031Z,66.54
2023-01-17T22:30:42.905Z,67.80
2023-01-17T22:35:46.035Z,67.32
2023-01-17T22:40:49.323Z,68.12
2023-01-17T22:46:00.263Z,67.33
2023-01-17T22:51:04.857Z,67.63
2023-01-17T22:56:10.184Z,67.51
2023-01-17T23:01:17.418Z,67.54
2023-01-17T23:06:23.033Z,66.70
2023-01-17T23:11:40.850Z,66.95
2023-01-17T23:17:04.755Z,66.18
2023-01-17T23:22:22.379Z,66.04
2023-01-17T23:27:45.307Z,66.45
2023-01-17T23:32:51.665Z,66.89
2023-01-17T23:38:12.308Z,67.16
2023-01-17T23:43:24.683Z,66.80
2023-01-17T23:48:29.947Z,67.24
2023-01-17T23:53:33.389Z,67.49
2023-01-17T23:58:36.824Z,67.07
